WAT3123 VMMC-ZSPD
Flight info
| Callsign | WAT3123 |
|---|---|
| Flight time | N/A |
| Altitude | 37000 |
| Route | NUDPI V601 DOTMI/K0859S1070 A470 LJG B221 SHZ W58 BK BK82A |
| Aircraft | A21N/M-SDE2E3FGHIRWXY/LB1 |
Departure
| Time | 2026-04-24 15:21 |
|---|---|
| Airport | Macau International Airport (VMMC) |
Arrival
| Time | N/A |
|---|---|
| Airport | Shanghai Pudong International Airport (ZSPD) |
| Time | Latitude | Longitude | Altitude | Speed | Heading |
|---|---|---|---|---|---|
| 2026-04-24 14:52 | 22.15863 | 113.57600 | 23 ft | 0 kts | 285° |
| 2026-04-24 15:04 | 22.15861 | 113.57609 | 22 ft | 2 kts | 285° |
| 2026-04-24 15:05 | 22.15857 | 113.57624 | 21 ft | 2 kts | 285° |
| 2026-04-24 15:05 | 22.15854 | 113.57639 | 21 ft | 1 kts | 285° |
| 2026-04-24 15:05 | 22.15851 | 113.57650 | 20 ft | 2 kts | 281° |
| 2026-04-24 15:05 | 22.15851 | 113.57666 | 19 ft | 2 kts | 256° |
| 2026-04-24 15:06 | 22.15857 | 113.57681 | 18 ft | 2 kts | 238° |
| 2026-04-24 15:06 | 22.15866 | 113.57694 | 18 ft | 2 kts | 219° |
| 2026-04-24 15:06 | 22.15879 | 113.57702 | 18 ft | 2 kts | 201° |
| 2026-04-24 15:06 | 22.15885 | 113.57704 | 18 ft | 1 kts | 192° |
| 2026-04-24 15:07 | 22.15889 | 113.57705 | 18 ft | 0 kts | 194° |
| 2026-04-24 15:11 | 22.15882 | 113.57703 | 18 ft | 1 kts | 194° |
| 2026-04-24 15:11 | 22.15863 | 113.57698 | 17 ft | 3 kts | 194° |
| 2026-04-24 15:12 | 22.15836 | 113.57690 | 18 ft | 4 kts | 195° |
| 2026-04-24 15:12 | 22.15754 | 113.57663 | 17 ft | 8 kts | 204° |
| 2026-04-24 15:12 | 22.15698 | 113.57630 | 18 ft | 9 kts | 214° |
| 2026-04-24 15:13 | 22.15636 | 113.57599 | 18 ft | 10 kts | 175° |
| 2026-04-24 15:13 | 22.15576 | 113.57661 | 15 ft | 13 kts | 124° |
| 2026-04-24 15:13 | 22.15519 | 113.57752 | 13 ft | 15 kts | 123° |
| 2026-04-24 15:13 | 22.15459 | 113.57851 | 12 ft | 16 kts | 123° |
| 2026-04-24 15:14 | 22.15395 | 113.57955 | 10 ft | 17 kts | 123° |
| 2026-04-24 15:14 | 22.15328 | 113.58064 | 9 ft | 17 kts | 124° |
| 2026-04-24 15:14 | 22.15260 | 113.58172 | 9 ft | 17 kts | 123° |
| 2026-04-24 15:14 | 22.15194 | 113.58279 | 9 ft | 17 kts | 123° |
| 2026-04-24 15:15 | 22.15129 | 113.58385 | 9 ft | 16 kts | 123° |
| 2026-04-24 15:15 | 22.15064 | 113.58489 | 9 ft | 16 kts | 123° |
| 2026-04-24 15:15 | 22.15001 | 113.58592 | 9 ft | 16 kts | 123° |
| 2026-04-24 15:15 | 22.14938 | 113.58695 | 9 ft | 16 kts | 124° |
| 2026-04-24 15:16 | 22.14874 | 113.58799 | 10 ft | 16 kts | 124° |
| 2026-04-24 15:16 | 22.14809 | 113.58903 | 11 ft | 16 kts | 123° |
| 2026-04-24 15:16 | 22.14747 | 113.59003 | 12 ft | 14 kts | 126° |
| 2026-04-24 15:16 | 22.14661 | 113.59055 | 12 ft | 14 kts | 162° |
| 2026-04-24 15:17 | 22.14560 | 113.59093 | 12 ft | 16 kts | 161° |
| 2026-04-24 15:17 | 22.14445 | 113.59135 | 12 ft | 18 kts | 161° |
| 2026-04-24 15:17 | 22.14320 | 113.59180 | 12 ft | 19 kts | 161° |
| 2026-04-24 15:17 | 22.14184 | 113.59231 | 12 ft | 20 kts | 161° |
| 2026-04-24 15:18 | 22.14050 | 113.59280 | 12 ft | 20 kts | 161° |
| 2026-04-24 15:18 | 22.13913 | 113.59331 | 12 ft | 20 kts | 161° |
| 2026-04-24 15:18 | 22.13776 | 113.59380 | 12 ft | 20 kts | 161° |
| 2026-04-24 15:18 | 22.13661 | 113.59427 | 11 ft | 13 kts | 155° |
| 2026-04-24 15:19 | 22.13597 | 113.59449 | 10 ft | 7 kts | 164° |
| 2026-04-24 15:19 | 22.13555 | 113.59480 | 10 ft | 8 kts | 128° |
| 2026-04-24 15:19 | 22.13514 | 113.59540 | 11 ft | 10 kts | 125° |
| 2026-04-24 15:19 | 22.13500 | 113.59618 | 12 ft | 10 kts | 63° |
| 2026-04-24 15:20 | 22.13562 | 113.59650 | 12 ft | 10 kts | 342° |
| 2026-04-24 15:20 | 22.13632 | 113.59621 | 12 ft | 11 kts | 341° |
| 2026-04-24 15:20 | 22.13901 | 113.59523 | 12 ft | 77 kts | 341° |
| 2026-04-24 15:20 | 22.14634 | 113.59254 | 13 ft | 141 kts | 341° |
| 2026-04-24 15:21 | 22.15699 | 113.58867 | 242 ft | 172 kts | 343° |
| 2026-04-24 15:21 | 22.16874 | 113.58778 | 917 ft | 175 kts | 19° |
| 2026-04-24 15:21 | 22.17864 | 113.59506 | 1683 ft | 177 kts | 36° |
| 2026-04-24 15:21 | 22.18884 | 113.60273 | 2256 ft | 186 kts | 28° |
| 2026-04-24 15:22 | 22.20069 | 113.60947 | 2713 ft | 201 kts | 24° |
| 2026-04-24 15:22 | 22.21373 | 113.61564 | 3326 ft | 208 kts | 21° |
| 2026-04-24 15:22 | 22.22724 | 113.62144 | 3993 ft | 212 kts | 21° |
| 2026-04-24 15:23 | 22.25531 | 113.63283 | 5247 ft | 220 kts | 21° |
| 2026-04-24 15:23 | 22.28373 | 113.64588 | 6443 ft | 226 kts | 31° |
| 2026-04-24 15:23 | 22.29684 | 113.65597 | 6840 ft | 240 kts | 37° |
| 2026-04-24 15:24 | 22.33901 | 113.69555 | 7856 ft | 291 kts | 56° |
| 2026-04-24 15:25 | 22.35014 | 113.73038 | 8787 ft | 302 kts | 79° |
| 2026-04-24 15:25 | 22.35963 | 113.78329 | 10040 ft | 313 kts | 79° |
| 2026-04-24 15:26 | 22.37161 | 113.85555 | 11031 ft | 345 kts | 94° |
| 2026-04-24 15:27 | 22.32934 | 113.91617 | 11791 ft | 368 kts | 155° |
| 2026-04-24 15:27 | 22.25835 | 113.95919 | 12510 ft | 407 kts | 153° |
| 2026-04-24 15:28 | 22.18172 | 114.05293 | 14336 ft | 433 kts | 122° |
| 2026-04-24 15:29 | 22.15132 | 114.10934 | 15180 ft | 439 kts | 123° |
| 2026-04-24 15:30 | 22.10776 | 114.19714 | 16409 ft | 448 kts | 119° |
| 2026-04-24 15:31 | 22.03007 | 114.30008 | 17990 ft | 446 kts | 147° |
| 2026-04-24 15:32 | 21.92857 | 114.37907 | 19443 ft | 454 kts | 147° |
| 2026-04-24 15:33 | 21.85200 | 114.48453 | 20694 ft | 482 kts | 99° |
| 2026-04-24 15:33 | 21.85912 | 114.59345 | 21557 ft | 491 kts | 86° |
| 2026-04-24 15:34 | 21.86526 | 114.66653 | 22101 ft | 495 kts | 87° |
| 2026-04-24 15:35 | 21.87373 | 114.77776 | 22851 ft | 500 kts | 88° |
| 2026-04-24 15:35 | 21.87928 | 114.85248 | 23323 ft | 504 kts | 88° |
| 2026-04-24 15:35 | 21.88207 | 114.89005 | 23551 ft | 506 kts | 88° |
| 2026-04-24 15:36 | 21.88428 | 114.92802 | 23774 ft | 507 kts | 90° |
| 2026-04-24 15:36 | 21.88687 | 115.00384 | 24356 ft | 508 kts | 90° |
| 2026-04-24 15:36 | 21.88800 | 115.04124 | 24665 ft | 507 kts | 90° |
| 2026-04-24 15:37 | 21.88915 | 115.07913 | 24956 ft | 507 kts | 90° |
| 2026-04-24 15:37 | 21.89029 | 115.11693 | 25244 ft | 508 kts | 90° |
| 2026-04-24 15:37 | 21.89145 | 115.15480 | 25539 ft | 508 kts | 90° |
| 2026-04-24 15:37 | 21.89260 | 115.19266 | 25846 ft | 508 kts | 90° |
| 2026-04-24 15:38 | 21.89375 | 115.23062 | 26150 ft | 507 kts | 90° |
| 2026-04-24 15:38 | 21.89491 | 115.26862 | 26450 ft | 507 kts | 90° |
| 2026-04-24 15:38 | 21.89606 | 115.30623 | 26748 ft | 507 kts | 90° |
| 2026-04-24 15:38 | 21.89722 | 115.34426 | 27042 ft | 507 kts | 90° |
| 2026-04-24 15:39 | 21.89836 | 115.38229 | 27330 ft | 507 kts | 89° |
| 2026-04-24 15:39 | 21.89948 | 115.42013 | 27617 ft | 508 kts | 89° |
| 2026-04-24 15:39 | 21.90058 | 115.45798 | 27906 ft | 508 kts | 89° |
| 2026-04-24 15:39 | 21.90167 | 115.49593 | 28210 ft | 508 kts | 89° |
| 2026-04-24 15:40 | 21.90275 | 115.53394 | 28520 ft | 508 kts | 89° |
| 2026-04-24 15:40 | 21.90385 | 115.57174 | 28836 ft | 507 kts | 89° |
| 2026-04-24 15:40 | 21.90622 | 115.60966 | 29156 ft | 508 kts | 85° |
| 2026-04-24 15:40 | 21.91058 | 115.64685 | 29482 ft | 507 kts | 81° |
| 2026-04-24 15:41 | 21.91712 | 115.68433 | 29805 ft | 507 kts | 78° |
| 2026-04-24 15:41 | 21.92455 | 115.72107 | 30127 ft | 506 kts | 77° |
| 2026-04-24 15:41 | 21.93226 | 115.75819 | 30443 ft | 506 kts | 77° |
| 2026-04-24 15:41 | 21.93996 | 115.79535 | 30755 ft | 506 kts | 77° |
| 2026-04-24 15:42 | 21.94747 | 115.83192 | 31061 ft | 507 kts | 78° |
| 2026-04-24 15:42 | 21.95504 | 115.86914 | 31375 ft | 507 kts | 78° |
| 2026-04-24 15:42 | 21.96249 | 115.90602 | 31692 ft | 506 kts | 78° |
| 2026-04-24 15:42 | 21.96990 | 115.94280 | 32011 ft | 506 kts | 78° |
| 2026-04-24 15:43 | 21.97732 | 115.97977 | 32332 ft | 505 kts | 78° |
| 2026-04-24 15:43 | 21.98472 | 116.01664 | 32647 ft | 505 kts | 78° |
| 2026-04-24 15:43 | 21.99207 | 116.05327 | 32952 ft | 504 kts | 78° |
| 2026-04-24 15:43 | 22.00154 | 116.08999 | 33219 ft | 504 kts | 67° |
| 2026-04-24 15:44 | 22.01816 | 116.12292 | 33448 ft | 501 kts | 51° |
| 2026-04-24 15:44 | 22.04122 | 116.15026 | 33652 ft | 495 kts | 36° |
| 2026-04-24 15:44 | 22.06953 | 116.17101 | 33848 ft | 487 kts | 21° |
| 2026-04-24 15:44 | 22.10074 | 116.18390 | 34037 ft | 476 kts | 7° |
| 2026-04-24 15:45 | 22.13307 | 116.18884 | 34219 ft | 465 kts | 354° |
| 2026-04-24 15:45 | 22.16527 | 116.18813 | 34401 ft | 461 kts | 350° |
| 2026-04-24 15:45 | 22.19720 | 116.18655 | 34561 ft | 462 kts | 350° |
| 2026-04-24 15:45 | 22.22978 | 116.18495 | 34719 ft | 464 kts | 350° |
| 2026-04-24 15:46 | 22.26184 | 116.18354 | 34880 ft | 465 kts | 350° |
| 2026-04-24 15:46 | 22.29439 | 116.18227 | 35039 ft | 466 kts | 351° |
| 2026-04-24 15:46 | 22.35921 | 116.18002 | 35099 ft | 467 kts | 351° |
| 2026-04-24 15:47 | 22.42445 | 116.17788 | 35083 ft | 467 kts | 351° |
| 2026-04-24 15:47 | 22.48968 | 116.17574 | 35066 ft | 468 kts | 351° |
| 2026-04-24 15:48 | 22.55488 | 116.17362 | 35050 ft | 468 kts | 351° |
| 2026-04-24 15:48 | 22.61985 | 116.17154 | 35042 ft | 469 kts | 351° |
| 2026-04-24 15:49 | 22.68568 | 116.17792 | 35045 ft | 483 kts | 5° |
| 2026-04-24 15:49 | 22.75041 | 116.20147 | 35051 ft | 497 kts | 20° |
| 2026-04-24 15:50 | 22.80958 | 116.24181 | 35059 ft | 507 kts | 33° |
| 2026-04-24 15:50 | 22.86501 | 116.28895 | 35059 ft | 508 kts | 34° |
| 2026-04-24 15:51 | 22.92095 | 116.33624 | 35058 ft | 508 kts | 33° |
| 2026-04-24 15:51 | 22.97718 | 116.38285 | 35058 ft | 509 kts | 32° |
| 2026-04-24 15:52 | 23.03352 | 116.42920 | 35058 ft | 509 kts | 32° |
| 2026-04-24 15:52 | 23.09000 | 116.47580 | 35059 ft | 511 kts | 32° |
| 2026-04-24 15:53 | 23.14675 | 116.52277 | 35060 ft | 512 kts | 32° |
| 2026-04-24 15:53 | 23.20337 | 116.56969 | 35061 ft | 513 kts | 32° |
| 2026-04-24 15:54 | 23.26021 | 116.61686 | 35061 ft | 513 kts | 32° |
| 2026-04-24 15:54 | 23.31705 | 116.66409 | 35059 ft | 514 kts | 33° |
| 2026-04-24 15:55 | 23.37427 | 116.71172 | 35061 ft | 515 kts | 33° |
| 2026-04-24 15:55 | 23.43052 | 116.75956 | 35061 ft | 517 kts | 36° |
| 2026-04-24 15:56 | 23.48277 | 116.81366 | 35063 ft | 520 kts | 43° |
| 2026-04-24 15:56 | 23.53271 | 116.87076 | 35063 ft | 521 kts | 43° |
| 2026-04-24 15:57 | 23.58275 | 116.92807 | 35064 ft | 521 kts | 43° |
| 2026-04-24 15:57 | 23.63272 | 116.98502 | 35064 ft | 521 kts | 43° |
| 2026-04-24 15:58 | 23.68295 | 117.04223 | 35064 ft | 521 kts | 43° |
| 2026-04-24 15:58 | 23.73289 | 117.09919 | 35066 ft | 522 kts | 43° |
| 2026-04-24 15:59 | 23.78435 | 117.15504 | 35070 ft | 520 kts | 38° |
| 2026-04-24 15:59 | 23.83817 | 117.20753 | 35075 ft | 520 kts | 37° |
| 2026-04-24 16:00 | 23.89242 | 117.26012 | 35081 ft | 520 kts | 37° |
| 2026-04-24 16:00 | 23.94638 | 117.31277 | 35091 ft | 520 kts | 38° |
| 2026-04-24 16:01 | 24.00020 | 117.36547 | 35106 ft | 520 kts | 38° |
| 2026-04-24 16:01 | 24.05414 | 117.41841 | 35123 ft | 520 kts | 38° |
| 2026-04-24 16:02 | 24.10805 | 117.47137 | 35116 ft | 521 kts | 38° |
| 2026-04-24 16:02 | 24.16044 | 117.52688 | 35118 ft | 526 kts | 43° |
| 2026-04-24 16:03 | 24.21022 | 117.58639 | 35119 ft | 529 kts | 44° |
| 2026-04-24 16:03 | 24.25954 | 117.64607 | 35109 ft | 528 kts | 44° |
| 2026-04-24 16:04 | 24.30889 | 117.70554 | 35102 ft | 528 kts | 45° |
| 2026-04-24 16:04 | 24.35834 | 117.76509 | 35099 ft | 528 kts | 45° |
| 2026-04-24 16:05 | 24.43238 | 117.85432 | 35105 ft | 528 kts | 45° |
| 2026-04-24 16:06 | 24.50635 | 117.94369 | 35112 ft | 529 kts | 45° |
| 2026-04-24 16:07 | 24.58069 | 118.03320 | 35118 ft | 528 kts | 43° |
| 2026-04-24 16:07 | 24.65753 | 118.11982 | 35117 ft | 528 kts | 42° |
| 2026-04-24 16:08 | 24.73425 | 118.20686 | 35115 ft | 528 kts | 42° |
| 2026-04-24 16:09 | 24.81091 | 118.29422 | 35114 ft | 529 kts | 43° |
| 2026-04-24 16:09 | 24.86165 | 118.35220 | 35114 ft | 530 kts | 42° |
| 2026-04-24 16:11 | 24.98955 | 118.49872 | 35114 ft | 532 kts | 43° |
| 2026-04-24 16:11 | 25.04072 | 118.55754 | 35113 ft | 533 kts | 43° |
| 2026-04-24 16:12 | 25.11758 | 118.64655 | 35112 ft | 534 kts | 44° |
| 2026-04-24 16:13 | 25.19304 | 118.73791 | 35111 ft | 535 kts | 45° |
| 2026-04-24 16:14 | 25.29324 | 118.85934 | 35110 ft | 536 kts | 44° |
| 2026-04-24 16:14 | 25.36856 | 118.94986 | 35113 ft | 536 kts | 43° |
| 2026-04-24 16:15 | 25.44568 | 119.03937 | 35123 ft | 536 kts | 43° |
| 2026-04-24 16:16 | 25.52249 | 119.12911 | 35124 ft | 536 kts | 43° |
| 2026-04-24 16:17 | 25.65053 | 119.27946 | 35120 ft | 537 kts | 43° |
| 2026-04-24 16:18 | 25.76297 | 119.38457 | 35128 ft | 521 kts | 22° |
| 2026-04-24 16:19 | 25.86220 | 119.42787 | 35126 ft | 504 kts | 7° |
| 2026-04-24 16:20 | 25.96316 | 119.46081 | 35119 ft | 505 kts | 7° |
| 2026-04-24 16:20 | 26.06410 | 119.49497 | 35115 ft | 505 kts | 7° |
| 2026-04-24 16:21 | 26.16512 | 119.52969 | 35124 ft | 508 kts | 9° |
| 2026-04-24 16:22 | 26.23142 | 119.55944 | 35126 ft | 520 kts | 17° |
| 2026-04-24 16:22 | 26.32584 | 119.62108 | 35121 ft | 528 kts | 25° |
| 2026-04-24 16:23 | 26.38765 | 119.66525 | 35117 ft | 528 kts | 26° |
| 2026-04-24 16:24 | 26.48110 | 119.73099 | 35119 ft | 528 kts | 25° |
| 2026-04-24 16:24 | 26.54328 | 119.77451 | 35120 ft | 528 kts | 25° |
| 2026-04-24 16:25 | 26.60551 | 119.81818 | 35120 ft | 529 kts | 25° |
| 2026-04-24 16:25 | 26.66766 | 119.86192 | 35121 ft | 529 kts | 26° |
| 2026-04-24 16:26 | 26.76109 | 119.92780 | 35122 ft | 531 kts | 26° |
| 2026-04-24 16:27 | 26.85471 | 119.99393 | 35124 ft | 532 kts | 26° |
| 2026-04-24 16:27 | 26.91735 | 120.03828 | 35132 ft | 533 kts | 26° |
| 2026-04-24 16:28 | 26.98012 | 120.08279 | 35140 ft | 533 kts | 26° |
| 2026-04-24 16:28 | 27.07385 | 120.14938 | 35141 ft | 532 kts | 26° |
| 2026-04-24 16:29 | 27.13648 | 120.19390 | 35128 ft | 532 kts | 26° |
| 2026-04-24 16:30 | 27.26227 | 120.28258 | 35113 ft | 534 kts | 27° |
| 2026-04-24 16:30 | 27.32537 | 120.32724 | 35112 ft | 535 kts | 27° |
| 2026-04-24 16:31 | 27.38831 | 120.37184 | 35114 ft | 536 kts | 27° |
| 2026-04-24 16:31 | 27.45134 | 120.41658 | 35116 ft | 537 kts | 27° |
| 2026-04-24 16:32 | 27.51440 | 120.46147 | 35115 ft | 538 kts | 27° |
| 2026-04-24 16:32 | 27.57788 | 120.50678 | 35114 ft | 538 kts | 27° |
| 2026-04-24 16:33 | 27.64086 | 120.55180 | 35111 ft | 538 kts | 27° |
| 2026-04-24 16:33 | 27.70504 | 120.59496 | 35110 ft | 533 kts | 20° |
| 2026-04-24 16:34 | 27.77290 | 120.62512 | 35110 ft | 521 kts | 8° |
| 2026-04-24 16:34 | 27.84318 | 120.64030 | 35111 ft | 508 kts | 356° |
| 2026-04-24 16:35 | 27.91385 | 120.64681 | 35113 ft | 507 kts | 354° |
| 2026-04-24 16:35 | 27.98403 | 120.65288 | 35112 ft | 507 kts | 355° |
| 2026-04-24 16:36 | 28.05469 | 120.65946 | 35118 ft | 509 kts | 355° |
| 2026-04-24 16:36 | 28.12534 | 120.66627 | 35120 ft | 511 kts | 355° |
| 2026-04-24 16:37 | 28.19704 | 120.67324 | 35119 ft | 512 kts | 355° |
| 2026-04-24 16:37 | 28.26782 | 120.68012 | 35119 ft | 512 kts | 355° |
| 2026-04-24 16:38 | 28.33883 | 120.68703 | 35124 ft | 512 kts | 355° |
| 2026-04-24 16:38 | 28.41016 | 120.69400 | 35129 ft | 513 kts | 355° |
| 2026-04-24 16:39 | 28.48129 | 120.70095 | 35069 ft | 513 kts | 355° |
| 2026-04-24 16:39 | 28.55244 | 120.70793 | 34998 ft | 513 kts | 355° |
| 2026-04-24 16:40 | 28.62362 | 120.71491 | 35014 ft | 513 kts | 355° |
| 2026-04-24 16:40 | 28.69462 | 120.72187 | 35050 ft | 514 kts | 355° |
| 2026-04-24 16:41 | 28.76616 | 120.72959 | 35100 ft | 516 kts | 355° |
| 2026-04-24 16:41 | 28.83757 | 120.73759 | 35128 ft | 515 kts | 355° |
| 2026-04-24 16:42 | 28.90906 | 120.74520 | 35141 ft | 514 kts | 355° |
| 2026-04-24 16:42 | 28.98048 | 120.75244 | 35142 ft | 514 kts | 354° |
| 2026-04-24 16:43 | 29.05137 | 120.75968 | 35138 ft | 514 kts | 354° |
| 2026-04-24 16:43 | 29.12329 | 120.76710 | 35134 ft | 513 kts | 354° |
| 2026-04-24 16:44 | 29.19489 | 120.77449 | 35137 ft | 513 kts | 354° |
| 2026-04-24 16:44 | 29.26642 | 120.78188 | 35139 ft | 514 kts | 354° |
| 2026-04-24 16:45 | 29.33766 | 120.78927 | 35138 ft | 514 kts | 354° |
| 2026-04-24 16:45 | 29.40877 | 120.79668 | 35135 ft | 514 kts | 354° |
| 2026-04-24 16:46 | 29.48005 | 120.80409 | 34812 ft | 515 kts | 354° |
| 2026-04-24 16:46 | 29.51579 | 120.80827 | 34282 ft | 521 kts | 358° |
| 2026-04-24 16:46 | 29.55164 | 120.81793 | 33640 ft | 539 kts | 9° |
| 2026-04-24 16:47 | 29.58648 | 120.83525 | 32885 ft | 556 kts | 22° |
| 2026-04-24 16:47 | 29.61875 | 120.86047 | 32053 ft | 568 kts | 36° |
| 2026-04-24 16:47 | 29.64651 | 120.89256 | 31254 ft | 574 kts | 49° |
| 2026-04-24 16:47 | 29.66956 | 120.92990 | 30479 ft | 574 kts | 57° |
| 2026-04-24 16:48 | 29.69069 | 120.96854 | 29689 ft | 573 kts | 58° |
| 2026-04-24 16:48 | 29.71159 | 121.00757 | 28956 ft | 571 kts | 58° |
| 2026-04-24 16:48 | 29.73237 | 121.04573 | 28282 ft | 567 kts | 57° |
| 2026-04-24 16:48 | 29.75340 | 121.08347 | 27621 ft | 562 kts | 56° |
| 2026-04-24 16:49 | 29.77486 | 121.12138 | 26948 ft | 557 kts | 55° |
| 2026-04-24 16:49 | 29.79592 | 121.15824 | 26272 ft | 553 kts | 55° |
| 2026-04-24 16:49 | 29.81683 | 121.19480 | 25552 ft | 551 kts | 54° |
| 2026-04-24 16:49 | 29.83781 | 121.23154 | 24783 ft | 549 kts | 54° |
| 2026-04-24 16:50 | 29.85175 | 121.25597 | 24273 ft | 548 kts | 54° |
| 2026-04-24 16:50 | 29.87990 | 121.30411 | 23280 ft | 542 kts | 50° |
| 2026-04-24 16:50 | 29.90544 | 121.33559 | 22728 ft | 526 kts | 37° |
| 2026-04-24 16:50 | 29.93420 | 121.35976 | 22199 ft | 509 kts | 25° |
| 2026-04-24 16:51 | 29.96478 | 121.37943 | 21685 ft | 497 kts | 22° |
| 2026-04-24 16:51 | 29.99543 | 121.39793 | 21161 ft | 489 kts | 21° |
| 2026-04-24 16:51 | 30.02535 | 121.41589 | 20617 ft | 483 kts | 21° |
| 2026-04-24 16:51 | 30.05492 | 121.43388 | 20058 ft | 477 kts | 22° |
| 2026-04-24 16:52 | 30.08376 | 121.45167 | 19506 ft | 472 kts | 22° |
| 2026-04-24 16:52 | 30.11274 | 121.46973 | 18945 ft | 467 kts | 23° |
| 2026-04-24 16:52 | 30.14100 | 121.48743 | 18386 ft | 463 kts | 23° |
| 2026-04-24 16:52 | 30.16830 | 121.50459 | 17838 ft | 458 kts | 23° |
| 2026-04-24 16:53 | 30.19627 | 121.52221 | 17280 ft | 453 kts | 24° |
| 2026-04-24 16:53 | 30.22397 | 121.53964 | 16685 ft | 448 kts | 24° |
| 2026-04-24 16:53 | 30.25125 | 121.55679 | 16119 ft | 443 kts | 24° |
| 2026-04-24 16:53 | 30.27809 | 121.57393 | 15557 ft | 439 kts | 25° |
| 2026-04-24 16:54 | 30.30434 | 121.59094 | 15002 ft | 434 kts | 25° |
| 2026-04-24 16:54 | 30.33069 | 121.60807 | 14441 ft | 430 kts | 25° |
| 2026-04-24 16:54 | 30.35672 | 121.62498 | 13877 ft | 425 kts | 25° |
| 2026-04-24 16:54 | 30.38204 | 121.64175 | 13320 ft | 421 kts | 27° |
| 2026-04-24 16:55 | 30.40715 | 121.65931 | 12754 ft | 417 kts | 28° |
| 2026-04-24 16:55 | 30.43190 | 121.67687 | 12185 ft | 413 kts | 29° |
| 2026-04-24 16:55 | 30.45626 | 121.69415 | 11601 ft | 409 kts | 29° |
| 2026-04-24 16:55 | 30.48013 | 121.71103 | 11037 ft | 404 kts | 29° |
| 2026-04-24 16:56 | 30.50396 | 121.72784 | 10631 ft | 395 kts | 29° |
| 2026-04-24 16:56 | 30.52727 | 121.74428 | 10351 ft | 382 kts | 29° |
| 2026-04-24 16:56 | 30.54955 | 121.75988 | 10155 ft | 368 kts | 28° |
| 2026-04-24 16:56 | 30.57204 | 121.77260 | 9950 ft | 354 kts | 21° |
| 2026-04-24 16:57 | 30.59476 | 121.78144 | 9861 ft | 336 kts | 14° |
| 2026-04-24 16:57 | 30.61718 | 121.78786 | 9841 ft | 318 kts | 12° |
| 2026-04-24 16:57 | 30.63805 | 121.79347 | 9831 ft | 301 kts | 12° |
| 2026-04-24 16:57 | 30.65795 | 121.79878 | 9828 ft | 287 kts | 12° |
| 2026-04-24 16:58 | 30.67761 | 121.80405 | 9836 ft | 287 kts | 12° |
| 2026-04-24 16:58 | 30.69712 | 121.80930 | 9840 ft | 287 kts | 12° |
| 2026-04-24 16:58 | 30.71665 | 121.81459 | 9842 ft | 287 kts | 12° |
| 2026-04-24 16:58 | 30.73612 | 121.81988 | 9842 ft | 287 kts | 12° |
| 2026-04-24 16:59 | 30.75567 | 121.82520 | 9843 ft | 287 kts | 12° |
| 2026-04-24 16:59 | 30.77497 | 121.83046 | 9843 ft | 287 kts | 12° |
| 2026-04-24 16:59 | 30.81388 | 121.84107 | 9843 ft | 287 kts | 12° |
| 2026-04-24 17:00 | 30.83336 | 121.84639 | 9843 ft | 287 kts | 12° |
| 2026-04-24 17:00 | 30.87235 | 121.85705 | 9842 ft | 287 kts | 12° |
| 2026-04-24 17:00 | 30.89170 | 121.86234 | 9841 ft | 287 kts | 12° |
| 2026-04-24 17:01 | 30.93063 | 121.87437 | 9583 ft | 290 kts | 20° |
| 2026-04-24 17:01 | 30.94869 | 121.88446 | 9193 ft | 290 kts | 28° |
| 2026-04-24 17:02 | 30.98338 | 121.90824 | 8458 ft | 285 kts | 30° |
| 2026-04-24 17:02 | 31.00022 | 121.91994 | 8109 ft | 283 kts | 30° |
| 2026-04-24 17:02 | 31.01704 | 121.93156 | 7763 ft | 280 kts | 30° |
| 2026-04-24 17:02 | 31.03396 | 121.94318 | 7414 ft | 277 kts | 30° |
| 2026-04-24 17:03 | 31.06653 | 121.96554 | 6949 ft | 262 kts | 30° |
| 2026-04-24 17:03 | 31.08063 | 121.97797 | 6835 ft | 251 kts | 47° |
| 2026-04-24 17:03 | 31.09055 | 121.99477 | 6853 ft | 251 kts | 60° |
| 2026-04-24 17:04 | 31.09898 | 122.01270 | 6870 ft | 252 kts | 61° |
| 2026-04-24 17:04 | 31.11565 | 122.04871 | 6881 ft | 251 kts | 60° |
| 2026-04-24 17:04 | 31.12402 | 122.06657 | 6883 ft | 251 kts | 60° |
| 2026-04-24 17:05 | 31.13239 | 122.08431 | 6883 ft | 250 kts | 60° |
| 2026-04-24 17:05 | 31.14081 | 122.10208 | 6883 ft | 250 kts | 60° |
| 2026-04-24 17:05 | 31.16050 | 122.13545 | 6882 ft | 249 kts | 44° |
| 2026-04-24 17:06 | 31.17326 | 122.14918 | 6884 ft | 249 kts | 41° |
| 2026-04-24 17:06 | 31.19920 | 122.17581 | 6884 ft | 249 kts | 41° |
| 2026-04-24 17:06 | 31.21226 | 122.18928 | 6884 ft | 249 kts | 41° |
| 2026-04-24 17:07 | 31.22085 | 122.19818 | 6884 ft | 249 kts | 41° |
| 2026-04-24 17:07 | 31.23530 | 122.21201 | 6882 ft | 249 kts | 33° |
| 2026-04-24 17:07 | 31.26613 | 122.23082 | 6884 ft | 249 kts | 24° |
| 2026-04-24 17:08 | 31.29751 | 122.24775 | 6884 ft | 249 kts | 24° |
| 2026-04-24 17:08 | 31.31328 | 122.25629 | 6884 ft | 249 kts | 24° |
| 2026-04-24 17:08 | 31.32889 | 122.26463 | 6884 ft | 249 kts | 21° |
| 2026-04-24 17:09 | 31.36270 | 122.27412 | 6885 ft | 249 kts | 9° |
| 2026-04-24 17:09 | 31.39690 | 122.27998 | 6884 ft | 249 kts | 8° |
| 2026-04-24 17:10 | 31.41416 | 122.28291 | 6884 ft | 249 kts | 7° |
| 2026-04-24 17:10 | 31.45085 | 122.24947 | 6882 ft | 256 kts | 275° |
| 2026-04-24 17:11 | 31.45027 | 122.18688 | 6885 ft | 257 kts | 271° |
| 2026-04-24 17:12 | 31.45016 | 122.08234 | 6883 ft | 257 kts | 271° |